createdAt,value
2023-04-24T00:00:59.528Z,0.40
2023-04-24T00:03:29.007Z,0.40
2023-04-24T00:05:57.317Z,0.40
2023-04-24T00:08:25.177Z,0.28
2023-04-24T00:10:54.332Z,0.20
2023-04-24T00:13:22.044Z,0.40
2023-04-24T00:15:49.769Z,0.47
2023-04-24T00:18:17.771Z,1.13
2023-04-24T00:20:45.668Z,0.22
2023-04-24T00:23:13.429Z,0.10
2023-04-24T00:25:41.288Z,0.30
2023-04-24T00:28:10.593Z,0.50
2023-04-24T00:30:38.338Z,0.22
2023-04-24T00:33:06.244Z,0.32
2023-04-24T00:35:34.113Z,0.30
2023-04-24T00:38:01.844Z,0.30
2023-04-24T00:40:30.367Z,0.20
2023-04-24T00:42:58.315Z,0.43
2023-04-24T00:45:27.414Z,0.30
2023-04-24T00:47:55.433Z,0.47
2023-04-24T00:50:23.941Z,0.22
2023-04-24T00:52:52.055Z,0.50
2023-04-24T00:55:20.144Z,0.30
2023-04-24T00:57:50.490Z,0.30
2023-04-24T01:00:18.627Z,0.55
2023-04-24T01:02:49.522Z,0.20
2023-04-24T01:05:18.137Z,0.30
2023-04-24T01:07:49.845Z,0.30
2023-04-24T01:10:19.091Z,0.20
2023-04-24T01:12:47.964Z,0.25
2023-04-24T01:15:16.364Z,0.30
2023-04-24T01:17:44.120Z,0.13
2023-04-24T01:20:14.396Z,0.25
2023-04-24T01:22:44.360Z,0.30
2023-04-24T01:25:12.349Z,0.20
2023-04-24T01:27:40.299Z,0.10
2023-04-24T01:30:10.397Z,0.10
2023-04-24T01:32:39.645Z,0.10
2023-04-24T01:35:09.788Z,0.10
2023-04-24T01:37:38.113Z,0.15
2023-04-24T01:40:09.253Z,0.10
2023-04-24T01:42:37.657Z,0.10
2023-04-24T01:45:07.413Z,0.20
2023-04-24T01:47:35.376Z,0.10
2023-04-24T01:50:03.189Z,0.10
2023-04-24T01:52:32.159Z,0.20
2023-04-24T01:55:02.104Z,0.20
2023-04-24T01:57:32.204Z,0.17
2023-04-24T01:59:59.977Z,0.20
2023-04-24T02:02:29.762Z,0.10
2023-04-24T02:04:57.920Z,0.20
2023-04-24T02:07:25.811Z,0.10
2023-04-24T02:09:53.912Z,0.13
2023-04-24T02:12:21.749Z,0.10
2023-04-24T02:14:51.058Z,0.22
2023-04-24T02:17:20.104Z,0.10
2023-04-24T02:19:47.830Z,0.10
2023-04-24T02:22:15.531Z,0.30
2023-04-24T02:24:43.294Z,0.10
2023-04-24T02:27:12.316Z,0.10
2023-04-24T02:29:40.052Z,0.52
2023-04-24T02:32:12.362Z,0.10
2023-04-24T02:34:40.231Z,0.10
2023-04-24T02:37:07.951Z,0.10
2023-04-24T02:39:35.889Z,0.10
2023-04-24T02:42:03.804Z,0.10
2023-04-24T02:44:31.479Z,0.20
2023-04-24T02:46:59.201Z,0.10
2023-04-24T02:49:28.206Z,0.10
2023-04-24T02:51:55.994Z,0.10
2023-04-24T02:54:23.742Z,0.10
2023-04-24T02:56:51.611Z,0.10
2023-04-24T02:59:19.354Z,0.10
2023-04-24T03:01:47.149Z,0.10
2023-04-24T03:04:15.092Z,0.10
2023-04-24T03:06:44.255Z,0.10
2023-04-24T03:09:12.139Z,0.10
2023-04-24T03:11:41.524Z,0.10
2023-04-24T03:14:09.315Z,0.30
2023-04-24T03:16:37.306Z,0.10
2023-04-24T03:19:05.103Z,0.15
2023-04-24T03:21:32.902Z,0.10
2023-04-24T03:24:01.972Z,0.20
2023-04-24T03:26:29.834Z,0.17
2023-04-24T03:28:57.551Z,0.25
2023-04-24T03:31:25.583Z,0.10
2023-04-24T03:33:53.321Z,0.28
2023-04-24T03:36:21.454Z,0.22
2023-04-24T03:38:49.203Z,0.30
2023-04-24T03:41:18.256Z,0.20
2023-04-24T03:43:45.979Z,0.17
2023-04-24T03:46:13.693Z,0.20
2023-04-24T03:48:41.514Z,0.30
2023-04-24T03:51:09.222Z,0.30
2023-04-24T03:53:36.959Z,0.20
2023-04-24T03:56:05.094Z,0.38
2023-04-24T03:58:34.240Z,0.40
2023-04-24T04:01:02.036Z,0.15
2023-04-24T04:03:29.929Z,0.28
2023-04-24T04:05:57.865Z,0.28
2023-04-24T04:08:25.750Z,0.20
2023-04-24T04:10:53.438Z,0.20
2023-04-24T04:13:21.304Z,0.20
2023-04-24T04:15:50.854Z,0.20
2023-04-24T04:18:18.632Z,0.22
2023-04-24T04:20:46.603Z,0.20
2023-04-24T04:23:14.396Z,0.10
2023-04-24T04:25:42.239Z,0.10
2023-04-24T04:28:10.231Z,0.10
2023-04-24T04:30:39.173Z,0.10
2023-04-24T04:33:09.090Z,0.10
2023-04-24T04:35:37.307Z,0.35
2023-04-24T04:38:05.611Z,0.10
2023-04-24T04:40:34.925Z,0.20
2023-04-24T04:43:03.454Z,0.15
2023-04-24T04:45:31.557Z,0.17
2023-04-24T04:48:01.587Z,0.20
2023-04-24T04:50:31.008Z,0.22
2023-04-24T04:52:58.701Z,0.20
2023-04-24T04:55:26.729Z,0.30
2023-04-24T04:57:54.586Z,0.52
2023-04-24T05:00:22.304Z,0.28
2023-04-24T05:02:50.213Z,0.30
2023-04-24T05:05:18.723Z,0.10
2023-04-24T05:07:47.869Z,0.30
2023-04-24T05:10:15.766Z,0.10
2023-04-24T05:12:45.040Z,0.17
2023-04-24T05:15:14.273Z,0.10
2023-04-24T05:17:42.279Z,0.55
2023-04-24T05:20:10.641Z,0.20
2023-04-24T05:22:38.371Z,0.15
2023-04-24T05:25:08.647Z,0.15
2023-04-24T05:27:36.448Z,0.10
2023-04-24T05:30:05.515Z,0.20
2023-04-24T05:32:33.231Z,0.10
2023-04-24T05:35:00.964Z,0.20
2023-04-24T05:37:28.633Z,0.10
2023-04-24T05:39:56.419Z,0.10
2023-04-24T05:42:25.895Z,0.20
2023-04-24T05:44:56.123Z,0.25
2023-04-24T05:47:27.287Z,0.40
2023-04-24T05:49:55.102Z,0.20
2023-04-24T05:52:22.828Z,0.20
2023-04-24T05:54:50.618Z,0.10
2023-04-24T05:57:18.328Z,0.50
2023-04-24T05:59:47.420Z,0.30
2023-04-24T06:02:15.180Z,0.32
2023-04-24T06:04:43.131Z,0.40
2023-04-24T06:07:12.434Z,0.40
2023-04-24T06:09:40.181Z,0.20
2023-04-24T06:12:09.094Z,0.50
2023-04-24T06:14:36.925Z,0.40
2023-04-24T06:17:06.609Z,0.50
2023-04-24T06:19:34.360Z,0.30
2023-04-24T06:22:02.097Z,0.82
2023-04-24T06:24:30.250Z,0.65
2023-04-24T06:26:59.837Z,0.35
2023-04-24T06:29:27.666Z,0.40
2023-04-24T06:31:55.571Z,0.60
2023-04-24T06:34:24.628Z,0.63
2023-04-24T06:36:52.511Z,0.30
2023-04-24T06:39:20.259Z,0.20
2023-04-24T06:41:48.168Z,0.10
2023-04-24T06:44:16.089Z,0.30
2023-04-24T06:46:43.975Z,0.20
2023-04-24T06:49:11.759Z,0.30
2023-04-24T06:51:40.774Z,0.30
2023-04-24T06:54:08.687Z,0.93
2023-04-24T06:56:36.460Z,0.45
2023-04-24T06:59:04.232Z,0.98
2023-04-24T07:01:31.961Z,0.52
2023-04-24T07:04:00.582Z,0.50
2023-04-24T07:06:28.496Z,0.43
2023-04-24T07:08:57.970Z,0.35
2023-04-24T07:11:30.007Z,0.28
2023-04-24T07:13:57.851Z,0.43
2023-04-24T07:16:25.728Z,0.70
2023-04-24T07:18:54.234Z,0.30
2023-04-24T07:21:21.917Z,0.80
2023-04-24T07:23:49.617Z,0.70
2023-04-24T07:26:18.956Z,0.40
2023-04-24T07:28:46.658Z,0.30
2023-04-24T07:31:14.529Z,0.50
2023-04-24T07:33:42.360Z,0.50
2023-04-24T07:36:16.160Z,0.60
2023-04-24T07:38:44.143Z,0.30
2023-04-24T07:41:11.867Z,0.40
2023-04-24T07:43:40.974Z,0.43
2023-04-24T07:46:09.234Z,0.13
2023-04-24T07:48:37.038Z,0.28
2023-04-24T07:51:05.131Z,0.38
2023-04-24T07:53:33.100Z,0.60
2023-04-24T07:56:00.897Z,0.68
2023-04-24T07:58:28.626Z,0.45
2023-04-24T08:00:57.769Z,0.77
2023-04-24T08:03:25.867Z,0.60
2023-04-24T08:05:53.796Z,0.20
2023-04-24T08:08:24.823Z,0.75
2023-04-24T08:10:52.660Z,0.60
2023-04-24T08:13:20.383Z,0.38
2023-04-24T08:15:48.341Z,0.40
2023-04-24T08:18:17.492Z,0.40
2023-04-24T08:20:46.135Z,0.63
2023-04-24T08:23:14.018Z,0.70
2023-04-24T08:25:41.795Z,0.93
2023-04-24T08:28:11.057Z,0.60
2023-04-24T08:30:39.367Z,0.60
2023-04-24T08:33:07.271Z,0.70
2023-04-24T08:35:36.552Z,0.70
2023-04-24T08:38:04.281Z,0.80
2023-04-24T08:40:36.743Z,0.73
2023-04-24T08:43:05.939Z,0.60
2023-04-24T08:45:35.305Z,0.43
2023-04-24T08:48:05.226Z,0.57
2023-04-24T08:50:34.071Z,0.40
2023-04-24T08:53:05.186Z,1.08
2023-04-24T08:55:35.497Z,0.38
2023-04-24T08:58:04.929Z,0.47
2023-04-24T09:00:33.673Z,0.47
2023-04-24T09:03:04.125Z,0.57
2023-04-24T09:05:32.552Z,0.73
2023-04-24T09:08:04.368Z,1.00
2023-04-24T09:10:32.237Z,0.90
2023-04-24T09:13:02.851Z,0.57
2023-04-24T09:15:31.596Z,1.10
2023-04-24T09:18:00.254Z,1.42
2023-04-24T09:20:27.981Z,0.88
2023-04-24T09:22:58.471Z,0.50
2023-04-24T09:25:34.583Z,0.50
2023-04-24T09:28:03.826Z,0.90
2023-04-24T09:30:32.560Z,0.60
2023-04-24T09:33:18.270Z,1.20
2023-04-24T09:35:52.316Z,1.17
2023-04-24T09:38:20.371Z,1.17
2023-04-24T09:40:49.641Z,0.38
2023-04-24T09:43:17.469Z,0.85
2023-04-24T09:45:45.309Z,1.00
2023-04-24T09:48:13.156Z,0.32
2023-04-24T09:50:41.113Z,0.57
2023-04-24T09:53:10.027Z,0.57
2023-04-24T09:55:46.706Z,0.88
2023-04-24T09:58:15.761Z,0.70
2023-04-24T10:00:43.522Z,0.85
2023-04-24T10:03:12.324Z,1.00
2023-04-24T10:05:40.614Z,0.65
2023-04-24T10:08:11.390Z,0.80
2023-04-24T10:10:42.687Z,0.70
2023-04-24T10:13:11.709Z,1.25
2023-04-24T10:15:42.924Z,0.93
2023-04-24T10:18:12.582Z,0.73
2023-04-24T10:20:42.836Z,0.60
2023-04-24T10:23:11.606Z,1.13
2023-04-24T10:25:39.366Z,1.02
2023-04-24T10:28:09.788Z,0.90
2023-04-24T10:30:45.200Z,1.00
2023-04-24T10:33:14.259Z,1.17
2023-04-24T10:35:49.898Z,0.93
2023-04-24T10:38:26.252Z,0.75
2023-04-24T10:40:59.656Z,0.80
2023-04-24T10:43:27.450Z,0.82
2023-04-24T10:46:05.357Z,0.95
2023-04-24T10:48:34.373Z,0.88
2023-04-24T10:51:02.258Z,0.63
2023-04-24T10:53:32.338Z,0.40
2023-04-24T10:56:05.281Z,0.63
2023-04-24T10:58:45.858Z,0.77
2023-04-24T11:01:28.229Z,0.68
2023-04-24T11:04:00.854Z,0.85
2023-04-24T11:06:33.724Z,0.70
2023-04-24T11:09:07.379Z,2.13
2023-04-24T11:11:38.240Z,1.27
2023-04-24T11:14:08.952Z,1.08
2023-04-24T11:16:46.406Z,0.60
2023-04-24T11:19:26.570Z,0.70
2023-04-24T11:22:02.071Z,1.05
2023-04-24T11:24:33.565Z,1.23
2023-04-24T11:27:09.620Z,1.00
2023-04-24T11:29:46.418Z,1.02
2023-04-24T11:32:28.313Z,0.80
2023-04-24T11:34:59.084Z,0.68
2023-04-24T11:37:29.924Z,1.00
2023-04-24T11:40:01.831Z,0.60
2023-04-24T11:42:30.654Z,1.00
2023-04-24T11:44:58.493Z,1.02
2023-04-24T11:47:34.868Z,0.88
2023-04-24T11:50:04.320Z,0.77
2023-04-24T11:52:32.809Z,0.73
2023-04-24T11:55:02.306Z,0.70
2023-04-24T11:57:34.504Z,0.60
2023-04-24T12:00:05.630Z,0.65
2023-04-24T12:02:36.433Z,0.98
2023-04-24T12:05:07.163Z,1.23
2023-04-24T12:07:44.576Z,1.05
2023-04-24T12:10:12.995Z,0.80
2023-04-24T12:12:40.877Z,0.80
2023-04-24T12:15:10.634Z,1.08
2023-04-24T12:17:44.188Z,0.45
2023-04-24T12:20:14.351Z,0.65
2023-04-24T12:22:48.531Z,1.42
2023-04-24T12:25:18.435Z,1.38
2023-04-24T12:27:47.195Z,0.60
2023-04-24T12:30:17.920Z,0.63
2023-04-24T12:32:52.646Z,0.77
2023-04-24T12:35:24.016Z,0.70
2023-04-24T12:37:51.939Z,0.52
2023-04-24T12:40:23.000Z,0.80
2023-04-24T12:42:53.247Z,0.50
2023-04-24T12:45:24.228Z,0.60
2023-04-24T12:47:53.410Z,0.60
2023-04-24T12:50:21.587Z,1.10
2023-04-24T12:52:49.767Z,0.85
2023-04-24T12:55:17.443Z,0.88
2023-04-24T12:57:45.142Z,0.60
2023-04-24T13:00:14.217Z,0.63
2023-04-24T13:02:42.247Z,0.77
2023-04-24T13:05:12.461Z,0.52
2023-04-24T13:07:40.234Z,0.65
2023-04-24T13:10:09.639Z,0.70
2023-04-24T13:12:38.028Z,0.35
2023-04-24T13:15:07.776Z,0.70
2023-04-24T13:17:35.796Z,0.80
2023-04-24T13:20:03.823Z,0.73
2023-04-24T13:22:33.006Z,1.13
2023-04-24T13:25:02.339Z,0.98
2023-04-24T13:27:30.564Z,0.80
2023-04-24T13:29:58.398Z,0.95
2023-04-24T13:32:26.312Z,0.60
2023-04-24T13:34:54.200Z,0.60
2023-04-24T13:37:23.516Z,0.43
2023-04-24T13:39:52.850Z,1.40
2023-04-24T13:42:20.906Z,0.77
2023-04-24T13:44:48.788Z,1.10
2023-04-24T13:47:16.621Z,0.85
2023-04-24T13:49:44.364Z,0.68
2023-04-24T13:52:12.200Z,0.73
2023-04-24T13:54:39.923Z,0.80
2023-04-24T13:57:09.141Z,0.93
2023-04-24T13:59:37.989Z,0.35
2023-04-24T14:02:05.828Z,0.40
2023-04-24T14:04:33.749Z,0.40
2023-04-24T14:07:01.642Z,0.40
2023-04-24T14:09:29.879Z,0.93
2023-04-24T14:11:57.759Z,0.47
2023-04-24T14:14:27.534Z,0.40
2023-04-24T14:16:55.366Z,1.00
2023-04-24T14:19:23.080Z,1.00
2023-04-24T14:21:50.861Z,0.90
2023-04-24T14:24:18.568Z,0.85
2023-04-24T14:26:46.694Z,0.88
2023-04-24T14:29:15.411Z,0.68
2023-04-24T14:31:45.096Z,0.70
2023-04-24T14:34:13.870Z,1.23
2023-04-24T14:36:41.722Z,0.90
2023-04-24T14:39:09.585Z,1.27
2023-04-24T14:41:38.135Z,1.10
2023-04-24T14:44:06.628Z,1.33
2023-04-24T14:46:34.759Z,0.50
2023-04-24T14:49:03.980Z,0.52
2023-04-24T14:51:32.292Z,0.88
2023-04-24T14:54:00.531Z,0.85
2023-04-24T14:56:28.374Z,1.30
2023-04-24T14:58:56.953Z,0.80
2023-04-24T15:01:24.931Z,0.68
2023-04-24T15:03:53.254Z,0.85
2023-04-24T15:06:22.657Z,0.73
2023-04-24T15:08:50.829Z,0.80
2023-04-24T15:11:19.055Z,0.75
2023-04-24T15:13:47.359Z,0.98
2023-04-24T15:16:15.529Z,1.00
2023-04-24T15:18:43.485Z,2.22
2023-04-24T15:21:11.306Z,1.20
2023-04-24T15:23:40.393Z,0.88
2023-04-24T15:26:08.185Z,0.82
2023-04-24T15:28:36.000Z,0.60
2023-04-24T15:31:03.916Z,0.85
2023-04-24T15:33:31.617Z,0.90
2023-04-24T15:35:59.342Z,1.10
2023-04-24T15:38:27.462Z,1.00
2023-04-24T15:40:56.526Z,1.48
2023-04-24T15:43:24.488Z,0.70
2023-04-24T15:45:52.474Z,0.60
2023-04-24T15:48:20.825Z,1.00
2023-04-24T15:50:48.566Z,0.85
2023-04-24T15:53:21.851Z,0.65
2023-04-24T15:55:50.074Z,0.47
2023-04-24T15:58:20.813Z,0.73
2023-04-24T16:00:48.752Z,0.82
2023-04-24T16:03:16.772Z,0.70
2023-04-24T16:05:44.652Z,0.75
2023-04-24T16:08:14.102Z,0.70
2023-04-24T16:10:42.262Z,0.52
2023-04-24T16:13:10.087Z,1.00
2023-04-24T16:15:41.493Z,1.10
2023-04-24T16:18:09.250Z,0.70
2023-04-24T16:20:37.070Z,0.60
2023-04-24T16:23:04.787Z,0.70
2023-04-24T16:25:33.251Z,1.15
2023-04-24T16:28:01.140Z,0.60
2023-04-24T16:30:30.014Z,0.70
2023-04-24T16:32:59.549Z,0.98
2023-04-24T16:35:27.389Z,0.98
2023-04-24T16:37:55.090Z,0.57
2023-04-24T16:40:22.992Z,0.73
2023-04-24T16:42:51.425Z,0.47
2023-04-24T16:45:19.377Z,0.70
2023-04-24T16:47:47.489Z,0.98
2023-04-24T16:50:16.620Z,0.95
2023-04-24T16:52:44.511Z,0.65
2023-04-24T16:55:12.261Z,0.90
2023-04-24T16:57:39.998Z,0.90
2023-04-24T17:00:09.733Z,0.90
2023-04-24T17:02:37.601Z,0.60
2023-04-24T17:05:06.536Z,0.80
2023-04-24T17:07:36.072Z,0.70
2023-04-24T17:10:04.679Z,1.10
2023-04-24T17:12:32.424Z,0.60
2023-04-24T17:15:00.205Z,0.93
2023-04-24T17:17:28.313Z,1.10
2023-04-24T17:19:56.094Z,0.93
2023-04-24T17:22:23.786Z,1.17
2023-04-24T17:24:52.931Z,0.60
2023-04-24T17:27:20.900Z,0.90
2023-04-24T17:29:49.710Z,0.90
2023-04-24T17:32:17.709Z,0.55
2023-04-24T17:34:46.354Z,0.75
2023-04-24T17:37:14.066Z,1.30
2023-04-24T17:39:41.819Z,0.90
2023-04-24T17:42:10.865Z,1.00
2023-04-24T17:44:38.529Z,1.10
2023-04-24T17:47:06.385Z,0.90
2023-04-24T17:49:34.160Z,0.73
2023-04-24T17:52:01.868Z,0.80
2023-04-24T17:54:29.606Z,0.95
2023-04-24T17:56:57.542Z,0.90
2023-04-24T17:59:26.766Z,0.82
2023-04-24T18:01:54.749Z,1.20
2023-04-24T18:04:22.777Z,1.02
2023-04-24T18:06:50.960Z,0.63
2023-04-24T18:09:21.094Z,0.75
2023-04-24T18:11:50.111Z,0.85
2023-04-24T18:14:19.684Z,0.90
2023-04-24T18:16:49.564Z,0.95
2023-04-24T18:19:20.708Z,1.02
2023-04-24T18:21:51.003Z,1.00
2023-04-24T18:24:22.428Z,0.82
2023-04-24T18:26:53.707Z,0.73
2023-04-24T18:29:21.852Z,0.90
2023-04-24T18:31:51.431Z,1.15
2023-04-24T18:34:23.775Z,0.88
2023-04-24T18:36:54.252Z,0.57
2023-04-24T18:39:25.466Z,1.00
2023-04-24T18:41:56.878Z,1.02
2023-04-24T18:44:25.892Z,1.10
2023-04-24T18:46:55.369Z,0.90
2023-04-24T18:49:23.554Z,0.90
2023-04-24T18:51:54.592Z,0.88
2023-04-24T18:54:22.879Z,1.05
2023-04-24T18:56:51.689Z,1.02
2023-04-24T18:59:19.793Z,1.10
2023-04-24T19:01:48.079Z,0.90
2023-04-24T19:04:18.031Z,1.20
2023-04-24T19:06:45.803Z,0.75
2023-04-24T19:09:13.621Z,0.90
2023-04-24T19:11:41.717Z,1.10
2023-04-24T19:14:09.828Z,1.00
2023-04-24T19:16:37.700Z,1.00
2023-04-24T19:19:05.900Z,1.30
2023-04-24T19:21:35.520Z,0.63
2023-04-24T19:24:08.242Z,1.10
2023-04-24T19:26:36.792Z,1.55
2023-04-24T19:29:07.443Z,0.98
2023-04-24T19:31:38.443Z,1.40
2023-04-24T19:34:07.695Z,0.80
2023-04-24T19:36:42.916Z,0.90
2023-04-24T19:39:12.673Z,1.08
2023-04-24T19:41:40.447Z,1.40
2023-04-24T19:44:12.924Z,0.90
2023-04-24T19:46:41.989Z,0.85
2023-04-24T19:49:10.598Z,1.40
2023-04-24T19:51:39.849Z,1.60
2023-04-24T19:54:08.323Z,1.35
2023-04-24T19:56:36.066Z,1.10
2023-04-24T19:59:03.977Z,1.30
2023-04-24T20:01:32.309Z,0.85
2023-04-24T20:04:01.361Z,1.50
2023-04-24T20:06:29.193Z,1.55
2023-04-24T20:08:58.280Z,1.10
2023-04-24T20:11:26.197Z,1.27
2023-04-24T20:13:54.298Z,1.38
2023-04-24T20:16:22.091Z,1.30
2023-04-24T20:18:50.079Z,2.92
2023-04-24T20:21:18.040Z,1.58
2023-04-24T20:23:45.802Z,1.13
2023-04-24T20:26:14.934Z,0.93
2023-04-24T20:28:42.741Z,1.33
2023-04-24T20:31:10.570Z,1.20
2023-04-24T20:33:41.349Z,1.20
2023-04-24T20:36:10.237Z,1.85
2023-04-24T20:38:38.270Z,1.60
2023-04-24T20:41:08.286Z,1.50
2023-04-24T20:43:37.534Z,1.77
2023-04-24T20:46:05.347Z,1.50
2023-04-24T20:48:33.083Z,1.42
2023-04-24T20:51:01.105Z,1.20
2023-04-24T20:53:28.814Z,1.10
2023-04-24T20:55:56.516Z,0.80
2023-04-24T20:58:24.604Z,1.23
2023-04-24T21:00:53.724Z,2.17
2023-04-24T21:03:21.713Z,1.50
2023-04-24T21:05:49.590Z,1.00
2023-04-24T21:08:17.689Z,0.93
2023-04-24T21:10:45.397Z,1.35
2023-04-24T21:13:13.100Z,1.02
2023-04-24T21:15:40.899Z,1.13
2023-04-24T21:18:10.032Z,1.83
2023-04-24T21:20:38.036Z,1.08
2023-04-24T21:23:05.763Z,0.88
2023-04-24T21:25:33.743Z,1.48
2023-04-24T21:28:02.220Z,1.25
2023-04-24T21:30:31.018Z,1.05
2023-04-24T21:32:58.862Z,1.23
2023-04-24T21:35:28.135Z,1.88
2023-04-24T21:37:55.807Z,1.33
2023-04-24T21:40:23.510Z,1.50
2023-04-24T21:42:52.832Z,0.80
2023-04-24T21:45:21.003Z,1.13
2023-04-24T21:47:48.761Z,0.80
2023-04-24T21:50:16.573Z,1.05
2023-04-24T21:52:45.620Z,1.20
2023-04-24T21:55:13.440Z,0.88
2023-04-24T21:57:41.581Z,1.00
2023-04-24T22:00:11.360Z,1.00
2023-04-24T22:02:39.696Z,1.05
2023-04-24T22:05:09.687Z,1.02
2023-04-24T22:07:37.400Z,1.13
2023-04-24T22:10:08.730Z,0.70
2023-04-24T22:12:36.744Z,1.50
2023-04-24T22:15:05.350Z,0.63
2023-04-24T22:17:33.543Z,0.82
2023-04-24T22:20:01.376Z,0.73
2023-04-24T22:22:29.508Z,1.05
2023-04-24T22:24:57.204Z,0.77
2023-04-24T22:27:26.286Z,0.88
2023-04-24T22:29:54.277Z,1.00
2023-04-24T22:32:22.027Z,0.90
2023-04-24T22:34:49.966Z,0.80
2023-04-24T22:37:17.690Z,1.05
2023-04-24T22:39:45.776Z,1.15
2023-04-24T22:42:13.549Z,1.48
2023-04-24T22:44:43.136Z,0.77
2023-04-24T22:47:10.918Z,0.73
2023-04-24T22:49:39.694Z,1.15
2023-04-24T22:52:08.094Z,1.13
2023-04-24T22:54:35.884Z,0.75
2023-04-24T22:57:03.949Z,0.77
2023-04-24T22:59:31.686Z,1.02
2023-04-24T23:02:01.587Z,1.00
2023-04-24T23:04:29.622Z,1.17
2023-04-24T23:06:57.318Z,1.02
2023-04-24T23:09:25.116Z,1.67
2023-04-24T23:11:52.964Z,0.98
2023-04-24T23:14:21.725Z,1.13
2023-04-24T23:16:49.702Z,1.10
2023-04-24T23:19:18.950Z,0.90
2023-04-24T23:21:46.810Z,1.40
2023-04-24T23:24:15.069Z,1.48
2023-04-24T23:26:42.998Z,0.88
2023-04-24T23:29:10.730Z,0.77
2023-04-24T23:31:38.638Z,0.60
2023-04-24T23:34:06.351Z,0.90
2023-04-24T23:36:35.625Z,1.00
2023-04-24T23:39:05.188Z,1.30
2023-04-24T23:41:32.966Z,1.05
2023-04-24T23:44:00.779Z,0.80
2023-04-24T23:46:28.793Z,0.75
2023-04-24T23:48:56.562Z,0.98
2023-04-24T23:51:24.603Z,0.77
2023-04-24T23:53:53.800Z,1.05
2023-04-24T23:56:24.215Z,1.27
2023-04-24T23:58:52.233Z,1.50
